Time;durP1;ratioP1;P1;durP2;ratioP2;P2;SDS_P1;SDS_P2;PMS_P1;PMS_P2;Temp;Humidity;BMP_temperature;BMP_pressure;BME280_temperature;BME280_humidity;BME280_pressure;Samples;Min_cycle;Max_cycle;Signal;HPM_P1;HPM_P2
2021/09/22 00:01:21;;;;;;;15.93;9.52;;;;;;;7.62;90.22;99135.78;4958564;28;20034;-59
2021/09/22 00:03:46;;;;;;;17.38;10.05;;;;;;;7.53;89.51;99140.22;4960940;28;20027;-58
2021/09/22 00:06:12;;;;;;;16.15;9.75;;;;;;;7.95;89.07;99146.66;4960222;28;20070;-59
2021/09/22 00:08:37;;;;;;;17.92;10.45;;;;;;;7.67;87.65;99154.78;4960898;28;20028;-59
2021/09/22 00:11:02;;;;;;;19.10;10.13;;;;;;;7.23;91.11;99156.06;4959557;28;20469;-57
2021/09/22 00:13:28;;;;;;;16.88;10.35;;;;;;;7.26;92.46;99156.03;4961464;28;20046;-60
2021/09/22 00:15:53;;;;;;;18.15;10.55;;;;;;;7.85;88.04;99154.56;4960629;28;20774;-58
2021/09/22 00:18:18;;;;;;;17.17;10.32;;;;;;;7.67;88.16;99141.78;4959434;28;20089;-59
2021/09/22 00:20:44;;;;;;;15.70;9.73;;;;;;;8.11;87.53;99132.59;4960220;28;20038;-60
2021/09/22 00:23:09;;;;;;;18.05;10.65;;;;;;;7.98;85.90;99126.72;4961223;28;20461;-58
2021/09/22 00:25:36;;;;;;;18.25;10.38;;;;;;;7.68;88.17;99135.72;4943572;28;20523;-60
2021/09/22 00:28:04;;;;;;;16.17;10.30;;;;;;;7.96;87.80;99135.38;4961059;28;20030;-58
2021/09/22 00:30:29;;;;;;;18.58;10.55;;;;;;;7.91;87.03;99133.72;4959366;28;20043;-59
2021/09/22 00:32:55;;;;;;;17.08;10.82;;;;;;;7.85;87.83;99136.38;4944144;28;20419;-58
2021/09/22 00:35:21;;;;;;;19.85;10.63;;;;;;;7.50;89.45;99137.63;4960797;28;20031;-58
2021/09/22 00:37:46;;;;;;;17.70;10.98;;;;;;;7.45;89.80;99141.16;4960597;28;20662;-59
2021/09/22 00:40:13;;;;;;;19.30;11.32;;;;;;;7.61;88.71;99147.03;4960115;28;20395;-60
2021/09/22 00:42:38;;;;;;;16.42;10.68;;;;;;;7.74;90.23;99146.03;4961188;28;20027;-58
2021/09/22 00:45:12;;;;;;;16.30;10.10;;;;;;;7.96;89.92;99133.66;4961598;28;20093;-59
2021/09/22 00:47:38;;;;;;;16.73;11.05;;;;;;;8.03;88.08;99130.13;4961596;28;20162;-59
2021/09/22 00:50:04;;;;;;;20.15;9.98;;;;;;;8.23;86.67;99134.19;4962038;28;20506;-60
2021/09/22 00:52:30;;;;;;;18.25;10.27;;;;;;;8.01;86.50;99142.25;4962555;28;20031;-59
2021/09/22 00:54:55;;;;;;;18.67;10.07;;;;;;;7.75;87.48;99139.09;4962420;28;20038;-58
2021/09/22 00:57:21;;;;;;;16.08;10.25;;;;;;;7.62;88.36;99135.78;4961840;28;20035;-59
2021/09/22 00:59:47;;;;;;;17.27;10.85;;;;;;;7.94;87.21;99131.94;4962411;28;20030;-58
2021/09/22 01:02:12;;;;;;;15.30;9.27;;;;;;;8.07;86.63;99133.53;4961216;28;20042;-58
2021/09/22 01:04:38;;;;;;;17.33;10.35;;;;;;;7.72;86.48;99129.63;4962446;28;20117;-58
2021/09/22 01:07:05;;;;;;;17.20;10.52;;;;;;;7.63;89.65;99120.19;4961561;28;20066;-59
2021/09/22 01:09:31;;;;;;;15.77;9.93;;;;;;;7.75;88.95;99116.59;4962102;28;20069;-58
2021/09/22 01:11:56;;;;;;;18.08;10.23;;;;;;;7.70;87.83;99110.56;4960699;28;20057;-59
2021/09/22 01:14:26;;;;;;;17.77;10.75;;;;;;;7.52;87.89;99107.31;4944998;28;20037;-58
2021/09/22 01:16:52;;;;;;;16.55;10.50;;;;;;;7.22;88.89;99108.47;4961986;28;20043;-58
2021/09/22 01:19:19;;;;;;;15.35;9.90;;;;;;;7.82;88.31;99100.06;4963853;28;20510;-58
2021/09/22 01:21:47;;;;;;;14.82;9.18;;;;;;;8.17;86.68;99103.94;4963946;28;20763;-59
2021/09/22 01:24:12;;;;;;;15.93;9.80;;;;;;;7.79;88.36;99105.28;4964654;28;20031;-59
2021/09/22 01:26:38;;;;;;;14.18;9.43;;;;;;;7.59;87.11;99104.66;4964923;28;20045;-59
2021/09/22 01:29:05;;;;;;;18.20;10.80;;;;;;;7.23;88.50;99093.78;4965590;28;20031;-58
2021/09/22 01:31:34;;;;;;;14.75;9.90;;;;;;;7.19;89.34;99097.31;4964130;28;20081;-58
2021/09/22 01:34:00;;;;;;;16.70;10.50;;;;;;;7.17;89.17;99101.63;4965091;28;20131;-58
2021/09/22 01:36:25;;;;;;;16.08;10.02;;;;;;;7.17;88.63;99093.84;4947305;28;20053;-58
2021/09/22 01:38:50;;;;;;;15.18;9.95;;;;;;;7.12;90.71;99097.34;4965068;28;20027;-57
2021/09/22 01:41:16;;;;;;;17.55;10.85;;;;;;;7.24;89.67;99090.31;4963803;28;20043;-58
2021/09/22 01:43:41;;;;;;;18.30;10.45;;;;;;;7.13;89.37;99093.88;4965096;28;20085;-57
2021/09/22 01:46:08;;;;;;;19.17;10.23;;;;;;;6.98;90.39;99094.00;4963536;28;20157;-58
2021/09/22 01:48:34;;;;;;;18.00;10.80;;;;;;;7.07;89.27;99093.94;4945779;28;20061;-58
2021/09/22 01:51:02;;;;;;;16.02;10.48;;;;;;;7.08;89.18;99087.88;4962279;28;20046;-58
2021/09/22 01:53:28;;;;;;;16.60;10.00;;;;;;;7.50;88.08;99097.84;4962652;28;20031;-58
2021/09/22 01:55:59;;;;;;;18.23;9.93;;;;;;;7.74;88.47;99088.91;4963006;28;20039;-58
2021/09/22 01:58:26;;;;;;;17.80;10.90;;;;;;;7.59;87.92;99086.47;4933821;28;20457;-57
2021/09/22 02:00:58;;;;;;;17.83;11.00;;;;;;;7.49;89.22;99086.56;4962403;28;20555;-59
2021/09/22 02:03:23;;;;;;;20.45;10.55;;;;;;;7.42;87.97;99084.91;4963322;28;20084;-60
2021/09/22 02:05:49;;;;;;;18.65;10.93;;;;;;;7.64;86.18;99084.69;4962669;28;20045;-58
2021/09/22 02:08:15;;;;;;;16.63;10.00;;;;;;;7.33;89.52;99091.09;4962867;28;20121;-60
2021/09/22 02:10:41;;;;;;;17.20;11.18;;;;;;;7.09;87.54;99094.75;4962122;28;20062;-59
2021/09/22 02:13:07;;;;;;;18.10;10.60;;;;;;;7.78;85.60;99090.59;4963163;28;20061;-58
2021/09/22 02:15:33;;;;;;;16.08;10.48;;;;;;;7.11;88.03;99087.84;4962712;28;20566;-57
2021/09/22 02:17:58;;;;;;;20.20;10.98;;;;;;;6.81;89.03;99095.91;4961068;28;20031;-59
2021/09/22 02:20:24;;;;;;;18.20;10.05;;;;;;;6.97;89.03;99091.47;4962133;28;20109;-58
2021/09/22 02:22:51;;;;;;;21.38;10.27;;;;;;;6.65;89.77;99100.34;4962634;28;20026;-57
2021/09/22 02:25:18;;;;;;;16.95;9.95;;;;;;;6.64;90.81;99104.66;4962356;28;20041;-58
2021/09/22 02:27:44;;;;;;;16.08;9.95;;;;;;;6.59;89.74;99096.06;4962232;28;20022;-58
2021/09/22 02:30:12;;;;;;;16.02;10.10;;;;;;;6.96;89.39;99098.34;4962224;28;20043;-60
2021/09/22 02:32:39;;;;;;;18.73;10.20;;;;;;;6.73;89.05;99094.22;4962399;28;20373;-58
2021/09/22 02:35:05;;;;;;;16.15;10.05;;;;;;;6.50;90.39;99096.13;4962896;28;20031;-58
2021/09/22 02:37:31;;;;;;;17.40;10.32;;;;;;;6.19;91.71;99101.50;4962409;28;20644;-59
2021/09/22 02:39:56;;;;;;;15.88;10.27;;;;;;;6.44;91.40;99099.63;4962737;28;20031;-58
2021/09/22 02:42:23;;;;;;;15.38;9.77;;;;;;;6.89;88.86;99096.69;4944106;28;20046;-58
2021/09/22 02:44:49;;;;;;;15.38;9.43;;;;;;;6.74;89.34;99097.69;4962915;28;20038;-58
2021/09/22 02:47:14;;;;;;;14.68;9.10;;;;;;;7.30;87.56;99096.31;4961719;28;20049;-58
2021/09/22 02:49:40;;;;;;;15.95;10.18;;;;;;;6.77;87.67;99092.47;4929329;28;20061;-59
2021/09/22 02:52:05;;;;;;;14.57;9.60;;;;;;;6.75;87.03;99092.47;4952870;28;20038;-57
2021/09/22 02:54:31;;;;;;;15.77;9.60;;;;;;;6.24;90.50;99099.75;4945145;28;20081;-59
2021/09/22 02:56:56;;;;;;;17.40;10.18;;;;;;;6.46;89.92;99103.06;4961690;28;20038;-57
2021/09/22 02:59:21;;;;;;;16.00;9.82;;;;;;;7.00;87.97;99101.78;4962605;28;20086;-57
2021/09/22 03:01:47;;;;;;;17.00;9.85;;;;;;;6.95;86.75;99097.50;4961051;28;20062;-56
2021/09/22 03:04:12;;;;;;;16.73;9.90;;;;;;;7.09;87.14;99096.50;4962440;28;20065;-57
2021/09/22 03:06:38;;;;;;;17.75;9.75;;;;;;;6.82;88.23;99107.97;4961460;28;20062;-57
2021/09/22 03:09:04;;;;;;;15.68;9.88;;;;;;;6.84;88.05;99103.66;4962245;28;20412;-56
2021/09/22 03:11:29;;;;;;;17.33;10.10;;;;;;;6.44;90.29;99116.91;4960790;28;20089;-57
2021/09/22 03:13:55;;;;;;;14.75;9.50;;;;;;;7.49;88.85;99120.31;4962210;28;20994;-56
2021/09/22 03:16:21;;;;;;;17.52;10.07;;;;;;;6.79;89.36;99124.44;4961233;28;20518;-57
2021/09/22 03:18:47;;;;;;;14.63;9.35;;;;;;;6.93;89.52;99116.56;4960101;28;20113;-57
2021/09/22 03:21:12;;;;;;;14.73;9.60;;;;;;;6.69;91.20;99118.47;4960845;28;20816;-58
2021/09/22 03:23:38;;;;;;;18.85;10.10;;;;;;;6.66;89.87;99113.28;4961579;28;20034;-59
2021/09/22 03:26:05;;;;;;;15.75;9.23;;;;;;;6.90;90.86;99116.56;4961794;28;20046;-59
2021/09/22 03:28:30;;;;;;;15.07;9.93;;;;;;;7.30;87.43;99111.88;4960275;28;20035;-57
2021/09/22 03:30:55;;;;;;;14.13;9.15;;;;;;;7.12;87.92;99120.69;4960711;28;20049;-57
2021/09/22 03:33:21;;;;;;;15.88;9.30;;;;;;;7.64;88.80;99105.47;4961963;28;20037;-59
2021/09/22 03:35:46;;;;;;;15.35;9.73;;;;;;;7.73;86.74;99106.19;4958876;28;20555;-57
2021/09/22 03:38:12;;;;;;;15.43;9.70;;;;;;;7.58;86.33;99105.53;4959410;28;20037;-58
2021/09/22 03:40:38;;;;;;;16.35;10.45;;;;;;;7.64;85.90;99103.72;4942477;28;20035;-57
2021/09/22 03:43:03;;;;;;;14.43;9.43;;;;;;;7.70;86.69;99100.19;4961236;28;20030;-58
2021/09/22 03:45:29;;;;;;;14.85;9.68;;;;;;;7.74;87.48;99101.91;4961410;28;20065;-58
2021/09/22 03:47:55;;;;;;;15.18;9.45;;;;;;;7.75;86.87;99102.75;4961267;28;20058;-59
2021/09/22 03:50:21;;;;;;;16.92;9.73;;;;;;;7.87;87.14;99108.66;4960461;28;20062;-57
2021/09/22 03:52:46;;;;;;;19.92;9.98;;;;;;;7.95;85.28;99105.09;4961204;28;20418;-58
2021/09/22 03:55:12;;;;;;;16.65;10.35;;;;;;;8.11;86.46;99099.69;4961232;28;20062;-59
2021/09/22 03:57:37;;;;;;;15.20;9.07;;;;;;;8.33;86.85;99101.13;4961389;28;20105;-60
2021/09/22 04:00:04;;;;;;;15.68;10.30;;;;;;;8.43;84.62;99097.53;4961204;28;20716;-57
2021/09/22 04:02:29;;;;;;;18.60;10.50;;;;;;;8.27;84.44;99092.53;4961229;28;20062;-58
2021/09/22 04:04:54;;;;;;;15.88;10.55;;;;;;;7.91;86.85;99094.75;4961519;28;20105;-58
2021/09/22 04:07:20;;;;;;;17.27;10.40;;;;;;;7.25;90.42;99092.03;4960369;28;20467;-58
2021/09/22 04:09:45;;;;;;;16.65;10.50;;;;;;;7.28;90.33;99098.06;4961510;28;20027;-57
2021/09/22 04:12:10;;;;;;;16.13;9.60;;;;;;;7.88;89.97;99089.59;4960278;28;20635;-57
2021/09/22 04:14:36;;;;;;;16.60;9.73;;;;;;;7.91;87.60;99092.13;4961344;28;20027;-57
2021/09/22 04:17:01;;;;;;;16.40;9.52;;;;;;;7.68;88.70;99102.84;4960409;28;20507;-58
2021/09/22 04:19:26;;;;;;;15.68;10.02;;;;;;;7.48;90.09;99104.75;4959536;28;20401;-57
2021/09/22 04:21:52;;;;;;;18.15;10.75;;;;;;;7.91;88.06;99099.94;4960087;28;20793;-58
2021/09/22 04:24:17;;;;;;;16.75;10.73;;;;;;;7.90;87.98;99103.44;4943505;28;20256;-57
2021/09/22 04:26:43;;;;;;;14.48;9.23;;;;;;;8.07;88.26;99110.16;4960689;28;20046;-58
2021/09/22 04:29:09;;;;;;;16.15;10.10;;;;;;;8.06;89.77;99098.88;4961281;28;20554;-57
2021/09/22 04:31:34;;;;;;;16.42;9.82;;;;;;;8.24;89.07;99100.38;4959904;28;20905;-57
2021/09/22 04:34:00;;;;;;;23.70;10.32;;;;;;;8.55;86.16;99101.72;4961012;28;20053;-57
2021/09/22 04:36:26;;;;;;;15.93;10.07;;;;;;;7.86;88.16;99096.53;4943194;28;20074;-59
2021/09/22 04:38:52;;;;;;;17.45;10.68;;;;;;;7.72;90.40;99095.88;4960921;28;20064;-57
2021/09/22 04:41:17;;;;;;;17.42;10.90;;;;;;;7.65;90.72;99102.00;4959801;28;20138;-59
2021/09/22 04:43:43;;;;;;;15.70;10.02;;;;;;;8.03;88.94;99114.53;4960773;28;20031;-59
2021/09/22 04:46:10;;;;;;;16.15;10.73;;;;;;;8.07;87.15;99108.41;4960283;28;20043;-60
2021/09/22 04:48:38;;;;;;;18.08;10.40;;;;;;;8.48;85.42;99108.75;4960826;28;20558;-59
2021/09/22 04:51:03;;;;;;;17.13;10.50;;;;;;;8.37;86.70;99108.84;4960600;28;20097;-59
2021/09/22 04:53:29;;;;;;;15.77;10.75;;;;;;;8.25;86.82;99104.69;4964242;28;20027;-59
2021/09/22 04:55:54;;;;;;;17.92;11.27;;;;;;;8.49;86.68;99110.44;4964104;28;20031;-60
2021/09/22 04:58:19;;;;;;;17.95;10.88;;;;;;;8.35;85.97;99104.56;4964098;28;20110;-60
2021/09/22 05:00:45;;;;;;;18.30;11.23;;;;;;;8.60;85.59;99100.75;4962958;28;20054;-59
2021/09/22 05:03:10;;;;;;;18.05;11.48;;;;;;;8.56;85.62;99099.06;4946925;28;20377;-59
2021/09/22 05:05:36;;;;;;;18.70;11.40;;;;;;;8.16;87.18;99103.94;4963900;28;20143;-58
2021/09/22 05:08:01;;;;;;;19.33;10.95;;;;;;;8.67;86.69;99105.00;4963957;28;20089;-58
2021/09/22 05:10:27;;;;;;;16.88;10.68;;;;;;;8.59;86.81;99108.56;4962978;28;20038;-59
2021/09/22 05:12:52;;;;;;;17.20;11.45;;;;;;;8.25;87.85;99109.91;4964466;28;20030;-58
2021/09/22 05:15:18;;;;;;;23.83;11.35;;;;;;;8.64;87.64;99114.56;4963680;28;20440;-58
2021/09/22 05:17:44;;;;;;;19.10;11.85;;;;;;;8.55;86.75;99112.97;4962897;28;20110;-58
2021/09/22 05:20:10;;;;;;;22.17;12.30;;;;;;;8.39;89.10;99121.84;4963064;28;20396;-58
2021/09/22 05:22:35;;;;;;;19.35;11.82;;;;;;;8.53;89.21;99119.06;4963276;28;20042;-61
2021/09/22 05:25:00;;;;;;;22.73;11.95;;;;;;;8.66;88.13;99111.06;4964234;28;20041;-59
2021/09/22 05:27:26;;;;;;;17.85;11.50;;;;;;;9.29;86.62;99106.53;4963166;28;20135;-58
2021/09/22 05:29:52;;;;;;;19.30;12.00;;;;;;;8.75;87.47;99106.56;4963537;28;20065;-59
2021/09/22 05:32:17;;;;;;;18.55;11.07;;;;;;;8.82;87.46;99106.47;4962457;28;20134;-59
2021/09/22 05:34:43;;;;;;;18.90;11.13;;;;;;;8.59;88.26;99108.56;4963487;28;20158;-58
2021/09/22 05:37:08;;;;;;;22.20;10.55;;;;;;;8.90;86.23;99121.97;4963003;28;20046;-60
2021/09/22 05:39:33;;;;;;;16.83;11.02;;;;;;;8.77;86.82;99128.25;4946621;28;20018;-58
2021/09/22 05:41:59;;;;;;;15.18;10.82;;;;;;;8.91;86.03;99120.22;4962731;28;20134;-58
2021/09/22 05:44:24;;;;;;;19.55;11.05;;;;;;;8.61;87.44;99117.22;4963630;28;20029;-59
2021/09/22 05:46:49;;;;;;;16.80;10.75;;;;;;;8.68;87.36;99124.03;4963043;28;20527;-57
2021/09/22 05:49:15;;;;;;;17.77;10.77;;;;;;;8.98;87.23;99122.69;4946279;28;20038;-60
2021/09/22 05:51:40;;;;;;;18.23;11.68;;;;;;;8.99;86.82;99118.34;4962034;28;20057;-60
2021/09/22 05:54:06;;;;;;;15.38;10.85;;;;;;;8.75;88.76;99122.19;4963766;28;20038;-58
2021/09/22 05:56:31;;;;;;;16.58;10.57;;;;;;;8.86;88.68;99112.50;4962603;28;20066;-59
2021/09/22 05:58:56;;;;;;;17.75;10.95;;;;;;;9.02;87.45;99113.97;4963406;28;20477;-59
2021/09/22 06:01:22;;;;;;;16.65;11.20;;;;;;;9.11;86.58;99106.88;4944573;28;20633;-58
2021/09/22 06:03:47;;;;;;;16.40;11.18;;;;;;;9.13;87.55;99110.28;4962864;28;20448;-58
2021/09/22 06:06:12;;;;;;;16.88;10.85;;;;;;;9.31;86.16;99119.53;4962680;28;20488;-59
2021/09/22 06:08:38;;;;;;;23.55;11.57;;;;;;;9.49;85.72;99124.41;4961582;28;20030;-58
2021/09/22 06:11:04;;;;;;;17.33;10.90;;;;;;;9.63;85.21;99116.31;4962039;28;20922;-58
2021/09/22 06:13:29;;;;;;;17.17;11.18;;;;;;;9.43;86.34;99124.53;4963305;28;20122;-58
2021/09/22 06:15:55;;;;;;;17.23;10.50;;;;;;;9.37;86.23;99124.63;4962405;28;20039;-60
2021/09/22 06:18:21;;;;;;;16.95;10.32;;;;;;;9.65;85.49;99119.78;4962089;28;20027;-58
2021/09/22 06:20:46;;;;;;;16.80;10.95;;;;;;;9.32;86.19;99122.13;4961949;28;20042;-58
2021/09/22 06:23:12;;;;;;;18.88;11.35;;;;;;;9.37;86.26;99125.47;4962435;28;20620;-58
2021/09/22 06:25:38;;;;;;;17.30;12.05;;;;;;;9.66;85.70;99126.69;4962643;28;20694;-58
2021/09/22 06:28:03;;;;;;;17.45;11.50;;;;;;;9.52;86.24;99134.78;4962927;28;20038;-60
2021/09/22 06:30:29;;;;;;;16.55;11.18;;;;;;;9.91;84.64;99126.22;4961636;28;20097;-59
2021/09/22 06:32:54;;;;;;;16.15;11.10;;;;;;;9.97;84.47;99129.53;4962958;28;20034;-58
2021/09/22 06:35:20;;;;;;;15.98;10.50;;;;;;;10.15;84.05;99120.47;4961717;28;20112;-58
2021/09/22 06:37:48;;;;;;;16.60;10.35;;;;;;;10.27;82.65;99128.94;4962366;28;20492;-58
2021/09/22 06:40:17;;;;;;;18.17;11.32;;;;;;;10.15;82.84;99122.25;4944670;28;20452;-58
2021/09/22 06:42:42;;;;;;;18.33;11.02;;;;;;;10.52;80.89;99124.91;4962577;28;20113;-59
2021/09/22 06:45:08;;;;;;;16.88;10.98;;;;;;;10.15;83.29;99120.47;4959748;28;20026;-59
2021/09/22 06:47:33;;;;;;;16.58;11.25;;;;;;;10.44;82.75;99125.97;4959044;28;20050;-58
2021/09/22 06:49:59;;;;;;;17.58;11.07;;;;;;;10.33;82.87;99119.25;4928589;28;20035;-61
2021/09/22 06:52:24;;;;;;;22.25;11.27;;;;;;;10.34;83.08;99126.19;4960666;28;20068;-57
2021/09/22 06:54:49;;;;;;;17.58;11.70;;;;;;;10.46;83.46;99127.69;4962013;28;20051;-60
2021/09/22 06:57:15;;;;;;;18.02;10.95;;;;;;;10.90;81.64;99131.00;4961399;28;20090;-63
2021/09/22 06:59:40;;;;;;;17.15;11.23;;;;;;;10.97;81.49;99126.47;4962539;28;20045;-58
2021/09/22 07:02:06;;;;;;;18.23;10.93;;;;;;;11.14;80.00;99129.53;4960911;28;20436;-59
2021/09/22 07:04:31;;;;;;;19.25;10.77;;;;;;;11.22;80.92;99129.31;4962003;28;20031;-59
2021/09/22 07:06:56;;;;;;;17.45;11.18;;;;;;;11.38;79.65;99122.81;4961066;28;20089;-58
2021/09/22 07:09:22;;;;;;;15.15;10.70;;;;;;;11.76;79.10;99117.44;4958955;28;20452;-58
2021/09/22 07:11:47;;;;;;;15.43;11.00;;;;;;;11.79;78.69;99126.97;4957975;28;20039;-59
2021/09/22 07:14:12;;;;;;;18.63;11.18;;;;;;;11.68;78.00;99120.25;4942010;28;22135;-59
2021/09/22 07:16:38;;;;;;;18.15;11.45;;;;;;;11.95;77.64;99120.44;4959053;28;20994;-58
2021/09/22 07:19:03;;;;;;;18.13;10.85;;;;;;;12.17;76.96;99132.88;4961359;28;20114;-61
2021/09/22 07:21:28;;;;;;;16.58;10.32;;;;;;;12.50;75.70;99121.41;4956659;28;20149;-58
2021/09/22 07:23:54;;;;;;;16.20;10.60;;;;;;;13.09;72.40;99123.00;4961215;28;20089;-58
2021/09/22 07:26:19;;;;;;;15.77;10.57;;;;;;;13.61;70.48;99130.88;4959505;28;20058;-58
2021/09/22 07:28:45;;;;;;;14.77;10.80;;;;;;;13.67;69.45;99132.41;4961216;28;20062;-58
2021/09/22 07:31:10;;;;;;;14.38;10.38;;;;;;;12.87;69.82;99120.22;4960128;28;20519;-58
2021/09/22 07:33:36;;;;;;;16.63;10.50;;;;;;;12.71;70.15;99132.09;4961606;28;20065;-59
2021/09/22 07:36:04;;;;;;;16.05;10.43;;;;;;;12.98;69.53;99132.97;4960712;28;20039;-58
2021/09/22 07:38:30;;;;;;;15.95;10.57;;;;;;;12.61;71.23;99138.50;4960975;28;20030;-59
2021/09/22 07:40:56;;;;;;;15.50;11.23;;;;;;;12.59;70.79;99130.75;4956889;28;20031;-59
2021/09/22 07:43:22;;;;;;;16.15;10.77;;;;;;;13.01;70.77;99126.78;4959706;28;20031;-59
2021/09/22 07:45:48;;;;;;;15.68;11.02;;;;;;;12.99;69.98;99139.06;4960361;28;20117;-59
2021/09/22 07:48:13;;;;;;;15.32;10.35;;;;;;;13.29;69.11;99126.72;4943659;28;20149;-61
2021/09/22 07:50:38;;;;;;;13.48;10.30;;;;;;;13.39;69.24;99132.53;4960004;28;20551;-58
2021/09/22 07:53:04;;;;;;;15.43;10.38;;;;;;;12.92;70.81;99130.53;4956321;28;20042;-58
2021/09/22 07:55:31;;;;;;;12.77;9.57;;;;;;;13.08;70.07;99128.28;4960168;28;20038;-58
2021/09/22 07:57:56;;;;;;;14.88;10.48;;;;;;;13.15;69.92;99140.28;4960720;28;20039;-58
2021/09/22 08:00:23;;;;;;;15.13;10.68;;;;;;;12.98;71.05;99137.38;4959581;28;20041;-58
2021/09/22 08:02:50;;;;;;;13.75;10.38;;;;;;;13.26;69.80;99142.53;4943713;28;20456;-59
2021/09/22 08:05:15;;;;;;;21.80;10.85;;;;;;;13.16;70.29;99141.13;4960735;28;20030;-58
2021/09/22 08:07:41;;;;;;;16.38;10.73;;;;;;;12.92;70.38;99139.28;4960799;28;20602;-59
2021/09/22 08:10:07;;;;;;;17.38;10.80;;;;;;;13.23;69.65;99146.13;4926647;28;20656;-61
2021/09/22 08:12:32;;;;;;;17.73;10.90;;;;;;;13.73;69.09;99142.69;4960370;28;20059;-59
2021/09/22 08:14:58;;;;;;;14.88;10.63;;;;;;;13.94;67.74;99143.69;4943761;28;20077;-59
2021/09/22 08:17:23;;;;;;;17.17;10.52;;;;;;;13.95;67.39;99145.41;4960176;28;20043;-58
2021/09/22 08:19:48;;;;;;;17.15;9.85;;;;;;;13.57;67.55;99152.84;4960911;28;20035;-59
2021/09/22 08:22:15;;;;;;;15.20;9.98;;;;;;;13.91;68.12;99156.06;4959568;28;20495;-59
2021/09/22 08:24:40;;;;;;;16.20;10.45;;;;;;;13.89;66.69;99148.22;4961097;28;20031;-58
2021/09/22 08:27:05;;;;;;;23.08;11.43;;;;;;;14.19;66.61;99150.63;4962798;28;20052;-58
2021/09/22 08:29:33;;;;;;;18.58;10.98;;;;;;;15.45;64.65;99148.28;4965115;28;20070;-58
2021/09/22 08:31:58;;;;;;;16.05;10.20;;;;;;;16.34;60.86;99151.41;4963370;28;20543;-59
2021/09/22 08:34:24;;;;;;;13.55;8.55;;;;;;;16.88;59.58;99152.38;4964569;28;20039;-58
2021/09/22 08:36:50;;;;;;;15.18;8.77;;;;;;;16.68;58.88;99160.34;4963735;28;20062;-60
2021/09/22 08:39:16;;;;;;;14.93;8.90;;;;;;;17.96;55.94;99162.81;4964255;28;20030;-59
2021/09/22 08:41:42;;;;;;;14.00;9.18;;;;;;;17.12;57.34;99166.13;4946155;28;20038;-59
2021/09/22 08:44:12;;;;;;;17.42;9.27;;;;;;;16.11;59.43;99165.63;4964531;28;20142;-59
2021/09/22 08:46:40;;;;;;;15.70;9.30;;;;;;;16.21;59.80;99164.28;4962985;28;20197;-60
2021/09/22 08:49:06;;;;;;;14.75;9.20;;;;;;;16.59;59.82;99164.28;4962686;28;20031;-59
2021/09/22 08:51:32;;;;;;;11.73;8.50;;;;;;;16.71;61.11;99153.16;4962938;28;20035;-60
2021/09/22 08:53:59;;;;;;;16.60;8.40;;;;;;;17.92;58.65;99162.13;4964419;28;20377;-59
2021/09/22 08:56:25;;;;;;;14.55;8.27;;;;;;;16.52;58.45;99149.69;4963206;28;20042;-60
2021/09/22 08:58:51;;;;;;;12.02;8.05;;;;;;;17.18;58.75;99158.84;4964299;28;20031;-58
2021/09/22 09:01:20;;;;;;;11.32;8.32;;;;;;;16.91;58.63;99151.41;4963046;28;20043;-59
2021/09/22 09:03:46;;;;;;;12.18;7.93;;;;;;;17.23;58.00;99162.13;4963545;28;20026;-58
2021/09/22 09:06:27;;;;;;;13.10;8.35;;;;;;;17.27;58.00;99148.69;4963579;28;20050;-60
2021/09/22 09:08:54;;;;;;;12.38;8.23;;;;;;;18.01;57.01;99150.22;4964074;28;20543;-62
2021/09/22 09:11:29;;;;;;;12.95;7.53;;;;;;;18.66;55.67;99149.34;4962519;28;20126;-59
2021/09/22 09:13:56;;;;;;;11.75;6.90;;;;;;;18.26;55.79;99148.91;4963790;28;20038;-59
2021/09/22 09:16:23;;;;;;;10.68;6.60;;;;;;;18.20;56.08;99147.44;4962689;28;20050;-59
2021/09/22 09:18:54;;;;;;;10.63;6.70;;;;;;;18.93;55.71;99139.03;4963751;28;20023;-62
2021/09/22 09:21:22;;;;;;;9.93;7.00;;;;;;;18.45;56.35;99139.03;4962405;28;20035;-59
2021/09/22 09:23:56;;;;;;;9.73;6.55;;;;;;;17.91;55.97;99141.06;4946301;28;20030;-59
2021/09/22 09:26:28;;;;;;;10.85;6.20;;;;;;;18.34;56.06;99135.28;4962818;28;20034;-58
2021/09/22 09:28:55;;;;;;;9.57;6.75;;;;;;;18.17;56.44;99134.41;4963411;28;20031;-58
2021/09/22 09:31:28;;;;;;;10.77;6.65;;;;;;;19.09;55.20;99133.72;4944865;28;20034;-59
2021/09/22 09:33:56;;;;;;;11.20;6.13;;;;;;;18.57;56.14;99137.50;4945709;28;20030;-58
2021/09/22 09:36:28;;;;;;;8.60;5.80;;;;;;;18.81;56.29;99134.44;4962359;28;20500;-58
2021/09/22 09:39:09;;;;;;;9.35;6.10;;;;;;;18.40;57.81;99137.59;4951943;28;20034;-58
2021/09/22 09:41:51;;;;;;;8.80;5.60;;;;;;;18.86;56.30;99138.53;4961753;28;20035;-58
2021/09/22 09:44:31;;;;;;;10.20;5.50;;;;;;;18.64;56.24;99138.84;4963483;28;20027;-58
2021/09/22 09:47:10;;;;;;;9.18;5.47;;;;;;;18.68;56.85;99147.47;4961767;28;20760;-59
2021/09/22 09:49:37;;;;;;;9.63;5.38;;;;;;;18.90;57.11;99139.22;4962097;28;20447;-58
2021/09/22 09:52:04;;;;;;;8.65;5.70;;;;;;;18.06;59.03;99142.88;4961349;28;20126;-60
2021/09/22 09:54:32;;;;;;;9.27;5.90;;;;;;;16.88;60.09;99147.09;4963342;28;20023;-58
2021/09/22 09:57:11;;;;;;;39.25;18.77;;;;;;;17.92;58.57;99145.44;4962542;28;20093;-57
2021/09/22 09:59:51;;;;;;;20.38;11.25;;;;;;;18.67;57.51;99146.63;4961856;28;20136;-58
2021/09/22 10:02:28;;;;;;;10.15;6.55;;;;;;;18.11;58.15;99134.75;4962164;28;20035;-59
2021/09/22 10:04:54;;;;;;;23.50;11.43;;;;;;;19.20;56.21;99126.00;4963186;28;20322;-59
2021/09/22 10:07:20;;;;;;;17.65;9.48;;;;;;;19.20;58.00;99125.16;4962181;28;20069;-59
2021/09/22 10:09:45;;;;;;;14.95;7.47;;;;;;;19.45;54.42;99120.13;4945173;28;20034;-58
2021/09/22 10:12:12;;;;;;;33.08;16.58;;;;;;;20.52;53.64;99117.09;4958595;28;20616;-57
2021/09/22 10:14:38;;;;;;;7.72;5.15;;;;;;;19.76;53.81;99118.31;4958978;28;20058;-58
2021/09/22 10:17:04;;;;;;;8.07;5.40;;;;;;;20.11;52.68;99117.94;4957157;28;20042;-59
2021/09/22 10:19:30;;;;;;;15.20;8.93;;;;;;;20.10;54.08;99110.06;4958244;28;20073;-59
2021/09/22 10:21:57;;;;;;;12.75;5.60;;;;;;;19.59;54.62;99105.19;4956485;28;20117;-58
2021/09/22 10:24:23;;;;;;;21.90;11.68;;;;;;;20.02;57.44;99099.97;4939444;28;20070;-59
2021/09/22 10:26:49;;;;;;;14.98;8.60;;;;;;;19.47;55.87;99100.66;4956265;28;20315;-60
2021/09/22 10:29:23;;;;;;;15.93;7.65;;;;;;;19.35;55.11;99097.78;4957813;28;20031;-59
2021/09/22 10:31:49;;;;;;;8.98;5.38;;;;;;;19.48;54.36;99097.91;4938325;28;20051;-59
2021/09/22 10:34:36;;;;;;;11.43;6.00;;;;;;;19.81;54.17;99096.81;4959317;28;20027;-60
2021/09/22 10:37:29;;;;;;;15.85;8.00;;;;;;;20.79;53.49;99095.94;4957576;28;20039;-59
2021/09/22 10:39:54;;;;;;;16.08;7.90;;;;;;;20.53;52.69;99102.91;4958875;28;20030;-59
2021/09/22 10:42:30;;;;;;;10.20;6.00;;;;;;;20.17;53.12;99091.03;4957317;28;20898;-61
2021/09/22 10:45:34;;;;;;;10.95;5.40;;;;;;;20.34;53.86;99089.13;4959202;28;20062;-58
2021/09/22 10:48:16;;;;;;;14.70;7.50;;;;;;;20.11;56.69;99085.28;4858937;29;20532;-58
2021/09/22 10:50:41;;;;;;;12.07;5.72;;;;;;;20.19;54.98;99088.31;4857312;29;20037;-59
2021/09/22 10:53:38;;;;;;;9.33;5.43;;;;;;;19.51;55.13;99083.66;4915683;28;20049;-58
2021/09/22 10:56:09;;;;;;;9.15;5.20;;;;;;;20.65;52.42;99081.88;4940702;28;20305;-58
2021/09/22 10:58:49;;;;;;;14.85;5.47;;;;;;;20.42;53.19;99082.38;4956783;28;20109;-56
2021/09/22 11:01:27;;;;;;;9.45;5.25;;;;;;;21.03;51.62;99074.03;4954321;28;20113;-61
2021/09/22 11:03:53;;;;;;;8.35;4.57;;;;;;;21.07;51.75;99074.69;4957757;28;20845;-59
2021/09/22 11:06:46;;;;;;;8.48;4.97;;;;;;;21.48;51.68;99084.31;4956685;28;20523;-58
2021/09/22 11:09:18;;;;;;;8.65;3.92;;;;;;;21.03;51.50;99078.50;4955661;28;20770;-55
2021/09/22 11:11:52;;;;;;;6.72;4.00;;;;;;;21.27;50.62;99068.88;4955289;28;20701;-57
2021/09/22 11:14:27;;;;;;;7.15;4.00;;;;;;;21.43;49.31;99073.13;4957758;28;20031;-58
2021/09/22 11:16:56;;;;;;;7.15;3.90;;;;;;;21.14;49.88;99068.03;4957359;28;20726;-60
2021/09/22 11:19:22;;;;;;;8.00;4.00;;;;;;;21.46;48.93;99067.66;4958064;28;20627;-58
2021/09/22 11:21:51;;;;;;;7.80;3.50;;;;;;;20.35;51.80;99062.53;4956672;28;20039;-59
2021/09/22 11:24:20;;;;;;;6.95;3.67;;;;;;;20.41;52.12;99061.28;4957854;28;20534;-61
2021/09/22 11:26:48;;;;;;;6.18;3.25;;;;;;;20.93;50.61;99063.19;4956624;28;20050;-58